FAPP

Polokwane International Airport

Potgietersrus, South Africa
METAR FAPP 180800Z 02005KT CAVOK 27/12 Q1019 NOSIG
Observed Flight Rules
Dec-18 @ 08:00 UTC (an hour ago) Visual Flight Rules
Wind Visibility Clouds
20° at 5 knots 10,000+ meters
  • Clear skies
Temperatures Readings
Current 27°C / 81°F
Dewpoint 12°C / 54°F
Humidity 39%
Altimeter 30.09" Hg
Pressure 1019 hPa
Elevation 1242
METAR FAPP 180800Z 02005KT CAVOK 27/12 Q1019 NOSIG
Observed Flight Rules
Dec-18 @ 08:00 UTC
(an hour ago)
VFR
Wind Visibility
20° at 5 knots 10,000+ meters
Clouds
  • Clear skies
Temperature Dewpoint
27°C / 81°F 12°C / 54°F
Humidity Altimeter Pressure
39% 30.09" Hg 1019 hPa